sensor_id;sensor_type;location;lat;lon;timestamp;temperature;humidity
66019;HTU21D;52787;51.084;5.816;2023-06-05T00:01:21;18.77;58.90
66019;HTU21D;52787;51.084;5.816;2023-06-05T00:03:47;18.70;59.00
66019;HTU21D;52787;51.084;5.816;2023-06-05T00:06:13;18.67;59.27
66019;HTU21D;52787;51.084;5.816;2023-06-05T00:08:38;18.65;59.36
66019;HTU21D;52787;51.084;5.816;2023-06-05T00:11:04;18.65;59.31
66019;HTU21D;52787;51.084;5.816;2023-06-05T00:13:30;18.61;59.41
66019;HTU21D;52787;51.084;5.816;2023-06-05T00:15:56;18.53;59.65
66019;HTU21D;52787;51.084;5.816;2023-06-05T00:18:22;18.44;60.10
66019;HTU21D;52787;51.084;5.816;2023-06-05T00:20:48;18.41;59.97
66019;HTU21D;52787;51.084;5.816;2023-06-05T00:23:14;18.38;60.18
66019;HTU21D;52787;51.084;5.816;2023-06-05T00:25:40;18.37;60.35
66019;HTU21D;52787;51.084;5.816;2023-06-05T00:28:05;18.38;60.26
66019;HTU21D;52787;51.084;5.816;2023-06-05T00:30:31;18.37;60.24
66019;HTU21D;52787;51.084;5.816;2023-06-05T00:32:57;18.34;60.40
66019;HTU21D;52787;51.084;5.816;2023-06-05T00:35:23;18.28;60.43
66019;HTU21D;52787;51.084;5.816;2023-06-05T00:37:50;18.27;60.41
66019;HTU21D;52787;51.084;5.816;2023-06-05T00:40:15;18.25;60.38
66019;HTU21D;52787;51.084;5.816;2023-06-05T00:42:41;18.23;60.45
66019;HTU21D;52787;51.084;5.816;2023-06-05T00:45:07;18.21;60.47
66019;HTU21D;52787;51.084;5.816;2023-06-05T00:47:34;18.19;60.58
66019;HTU21D;52787;51.084;5.816;2023-06-05T00:50:01;18.15;60.68
66019;HTU21D;52787;51.084;5.816;2023-06-05T00:52:27;18.17;60.64
66019;HTU21D;52787;51.084;5.816;2023-06-05T00:54:54;18.13;60.63
66019;HTU21D;52787;51.084;5.816;2023-06-05T00:57:20;18.07;60.83
66019;HTU21D;52787;51.084;5.816;2023-06-05T00:59:50;18.04;60.93
66019;HTU21D;52787;51.084;5.816;2023-06-05T01:02:16;18.02;60.97
66019;HTU21D;52787;51.084;5.816;2023-06-05T01:04:42;17.98;61.09
66019;HTU21D;52787;51.084;5.816;2023-06-05T01:07:10;17.90;61.38
66019;HTU21D;52787;51.084;5.816;2023-06-05T01:09:37;17.88;61.44
66019;HTU21D;52787;51.084;5.816;2023-06-05T01:12:24;17.82;61.74
66019;HTU21D;52787;51.084;5.816;2023-06-05T01:14:56;17.79;61.76
66019;HTU21D;52787;51.084;5.816;2023-06-05T01:17:30;17.70;62.19
66019;HTU21D;52787;51.084;5.816;2023-06-05T01:19:57;17.61;62.42
66019;HTU21D;52787;51.084;5.816;2023-06-05T01:22:32;17.55;62.56
66019;HTU21D;52787;51.084;5.816;2023-06-05T01:24:58;17.50;62.76
66019;HTU21D;52787;51.084;5.816;2023-06-05T01:27:42;17.43;62.99
66019;HTU21D;52787;51.084;5.816;2023-06-05T01:33:19;17.39;63.30
66019;HTU21D;52787;51.084;5.816;2023-06-05T01:35:51;17.40;63.13
66019;HTU21D;52787;51.084;5.816;2023-06-05T01:38:19;17.36;63.27
66019;HTU21D;52787;51.084;5.816;2023-06-05T01:40:48;17.32;63.46
66019;HTU21D;52787;51.084;5.816;2023-06-05T01:43:17;17.32;63.52
66019;HTU21D;52787;51.084;5.816;2023-06-05T01:45:44;17.33;63.54
66019;HTU21D;52787;51.084;5.816;2023-06-05T01:48:10;17.26;63.67
66019;HTU21D;52787;51.084;5.816;2023-06-05T01:50:36;17.24;63.76
66019;HTU21D;52787;51.084;5.816;2023-06-05T01:53:04;17.25;63.72
66019;HTU21D;52787;51.084;5.816;2023-06-05T01:55:30;17.21;63.87
66019;HTU21D;52787;51.084;5.816;2023-06-05T01:57:56;17.19;63.82
66019;HTU21D;52787;51.084;5.816;2023-06-05T02:00:22;17.15;63.88
66019;HTU21D;52787;51.084;5.816;2023-06-05T02:02:49;17.18;63.95
66019;HTU21D;52787;51.084;5.816;2023-06-05T02:05:17;17.17;63.89
66019;HTU21D;52787;51.084;5.816;2023-06-05T02:07:46;17.15;63.97
66019;HTU21D;52787;51.084;5.816;2023-06-05T02:10:14;17.13;64.08
66019;HTU21D;52787;51.084;5.816;2023-06-05T02:12:41;17.11;64.00
66019;HTU21D;52787;51.084;5.816;2023-06-05T02:15:08;17.06;64.05
66019;HTU21D;52787;51.084;5.816;2023-06-05T02:17:42;17.03;64.20
66019;HTU21D;52787;51.084;5.816;2023-06-05T02:20:14;16.92;64.55
66019;HTU21D;52787;51.084;5.816;2023-06-05T02:22:43;16.84;64.94
66019;HTU21D;52787;51.084;5.816;2023-06-05T02:25:10;16.79;65.24
66019;HTU21D;52787;51.084;5.816;2023-06-05T02:27:37;16.75;65.38
66019;HTU21D;52787;51.084;5.816;2023-06-05T02:30:03;16.80;65.25
66019;HTU21D;52787;51.084;5.816;2023-06-05T02:32:29;16.78;65.27
66019;HTU21D;52787;51.084;5.816;2023-06-05T02:34:57;16.74;65.37
66019;HTU21D;52787;51.084;5.816;2023-06-05T02:37:24;16.73;65.44
66019;HTU21D;52787;51.084;5.816;2023-06-05T02:39:51;16.67;65.56
66019;HTU21D;52787;51.084;5.816;2023-06-05T02:42:17;16.71;65.51
66019;HTU21D;52787;51.084;5.816;2023-06-05T02:44:44;16.71;65.44
66019;HTU21D;52787;51.084;5.816;2023-06-05T02:47:11;16.73;65.37
66019;HTU21D;52787;51.084;5.816;2023-06-05T02:49:37;16.72;65.39
66019;HTU21D;52787;51.084;5.816;2023-06-05T02:52:04;16.67;65.62
66019;HTU21D;52787;51.084;5.816;2023-06-05T02:54:29;16.61;65.63
66019;HTU21D;52787;51.084;5.816;2023-06-05T02:56:55;16.60;65.76
66019;HTU21D;52787;51.084;5.816;2023-06-05T02:59:35;16.58;65.78
66019;HTU21D;52787;51.084;5.816;2023-06-05T03:02:08;16.55;65.87
66019;HTU21D;52787;51.084;5.816;2023-06-05T03:04:34;16.57;65.83
66019;HTU21D;52787;51.084;5.816;2023-06-05T03:07:00;16.59;65.73
66019;HTU21D;52787;51.084;5.816;2023-06-05T03:09:32;16.61;65.54
66019;HTU21D;52787;51.084;5.816;2023-06-05T03:11:59;16.57;65.65
66019;HTU21D;52787;51.084;5.816;2023-06-05T03:14:25;16.54;65.69
66019;HTU21D;52787;51.084;5.816;2023-06-05T03:16:52;16.54;65.68
66019;HTU21D;52787;51.084;5.816;2023-06-05T03:19:22;16.55;65.60
66019;HTU21D;52787;51.084;5.816;2023-06-05T03:21:47;16.50;65.74
66019;HTU21D;52787;51.084;5.816;2023-06-05T03:24:15;16.41;66.13
66019;HTU21D;52787;51.084;5.816;2023-06-05T03:26:42;16.31;66.42
66019;HTU21D;52787;51.084;5.816;2023-06-05T03:29:10;16.22;66.77
66019;HTU21D;52787;51.084;5.816;2023-06-05T03:31:37;16.20;66.85
66019;HTU21D;52787;51.084;5.816;2023-06-05T03:34:03;16.19;66.88
66019;HTU21D;52787;51.084;5.816;2023-06-05T03:36:30;16.17;66.93
66019;HTU21D;52787;51.084;5.816;2023-06-05T03:38:58;16.16;67.00
66019;HTU21D;52787;51.084;5.816;2023-06-05T03:41:25;16.10;67.15
66019;HTU21D;52787;51.084;5.816;2023-06-05T03:43:52;16.06;67.24
66019;HTU21D;52787;51.084;5.816;2023-06-05T03:46:19;16.03;67.46
66019;HTU21D;52787;51.084;5.816;2023-06-05T03:48:46;16.03;67.51
66019;HTU21D;52787;51.084;5.816;2023-06-05T03:51:12;16.02;67.56
66019;HTU21D;52787;51.084;5.816;2023-06-05T03:53:38;16.03;67.57
66019;HTU21D;52787;51.084;5.816;2023-06-05T03:56:08;16.07;67.46
66019;HTU21D;52787;51.084;5.816;2023-06-05T03:58:34;16.07;67.39
66019;HTU21D;52787;51.084;5.816;2023-06-05T04:01:00;16.02;67.62
66019;HTU21D;52787;51.084;5.816;2023-06-05T04:03:26;16.01;67.62
66019;HTU21D;52787;51.084;5.816;2023-06-05T04:05:52;16.03;67.58
66019;HTU21D;52787;51.084;5.816;2023-06-05T04:08:18;16.05;67.57
66019;HTU21D;52787;51.084;5.816;2023-06-05T04:10:44;16.05;67.57
66019;HTU21D;52787;51.084;5.816;2023-06-05T04:13:10;16.08;67.50
66019;HTU21D;52787;51.084;5.816;2023-06-05T04:15:36;16.11;67.47
66019;HTU21D;52787;51.084;5.816;2023-06-05T04:18:02;16.14;67.33
66019;HTU21D;52787;51.084;5.816;2023-06-05T04:20:28;16.13;67.43
66019;HTU21D;52787;51.084;5.816;2023-06-05T04:22:54;16.11;67.56
66019;HTU21D;52787;51.084;5.816;2023-06-05T04:25:20;16.12;67.62
66019;HTU21D;52787;51.084;5.816;2023-06-05T04:27:48;16.04;67.60
66019;HTU21D;52787;51.084;5.816;2023-06-05T04:30:15;16.00;67.73
66019;HTU21D;52787;51.084;5.816;2023-06-05T04:32:41;15.99;67.89
66019;HTU21D;52787;51.084;5.816;2023-06-05T04:35:10;16.05;67.81
66019;HTU21D;52787;51.084;5.816;2023-06-05T04:37:38;16.13;67.49
66019;HTU21D;52787;51.084;5.816;2023-06-05T04:40:05;16.21;67.14
66019;HTU21D;52787;51.084;5.816;2023-06-05T04:42:37;16.27;66.95
66019;HTU21D;52787;51.084;5.816;2023-06-05T04:45:05;16.26;67.01
66019;HTU21D;52787;51.084;5.816;2023-06-05T04:47:33;16.25;67.09
66019;HTU21D;52787;51.084;5.816;2023-06-05T04:50:01;16.21;67.10
66019;HTU21D;52787;51.084;5.816;2023-06-05T04:52:32;16.22;67.37
66019;HTU21D;52787;51.084;5.816;2023-06-05T04:55:02;16.20;67.37
66019;HTU21D;52787;51.084;5.816;2023-06-05T04:57:29;16.21;67.33
66019;HTU21D;52787;51.084;5.816;2023-06-05T04:59:55;16.27;67.21
66019;HTU21D;52787;51.084;5.816;2023-06-05T05:02:23;16.32;67.07
66019;HTU21D;52787;51.084;5.816;2023-06-05T05:04:49;16.33;66.92
66019;HTU21D;52787;51.084;5.816;2023-06-05T05:07:15;16.30;66.98
66019;HTU21D;52787;51.084;5.816;2023-06-05T05:09:42;16.27;67.14
66019;HTU21D;52787;51.084;5.816;2023-06-05T05:12:09;16.27;67.28
66019;HTU21D;52787;51.084;5.816;2023-06-05T05:14:36;16.29;67.33
66019;HTU21D;52787;51.084;5.816;2023-06-05T05:17:02;16.35;67.23
66019;HTU21D;52787;51.084;5.816;2023-06-05T05:19:29;16.41;67.01
66019;HTU21D;52787;51.084;5.816;2023-06-05T05:21:55;16.40;66.84
66019;HTU21D;52787;51.084;5.816;2023-06-05T05:24:21;16.40;66.91
66019;HTU21D;52787;51.084;5.816;2023-06-05T05:26:49;16.41;66.81
66019;HTU21D;52787;51.084;5.816;2023-06-05T05:29:16;16.41;66.56
66019;HTU21D;52787;51.084;5.816;2023-06-05T05:31:41;16.36;66.65
66019;HTU21D;52787;51.084;5.816;2023-06-05T05:34:08;16.31;66.68
66019;HTU21D;52787;51.084;5.816;2023-06-05T05:36:33;16.25;67.06
66019;HTU21D;52787;51.084;5.816;2023-06-05T05:38:59;16.21;67.23
66019;HTU21D;52787;51.084;5.816;2023-06-05T05:41:25;16.24;67.30
66019;HTU21D;52787;51.084;5.816;2023-06-05T05:43:52;16.31;67.30
66019;HTU21D;52787;51.084;5.816;2023-06-05T05:46:18;16.41;67.09
66019;HTU21D;52787;51.084;5.816;2023-06-05T05:48:43;16.47;66.72
66019;HTU21D;52787;51.084;5.816;2023-06-05T05:51:09;16.50;66.66
66019;HTU21D;52787;51.084;5.816;2023-06-05T05:53:35;16.50;66.65
66019;HTU21D;52787;51.084;5.816;2023-06-05T05:56:01;16.52;66.78
66019;HTU21D;52787;51.084;5.816;2023-06-05T05:58:29;16.57;66.62
66019;HTU21D;52787;51.084;5.816;2023-06-05T06:00:55;16.59;66.27
66019;HTU21D;52787;51.084;5.816;2023-06-05T06:03:21;16.60;66.37
66019;HTU21D;52787;51.084;5.816;2023-06-05T06:05:48;16.60;66.33
66019;HTU21D;52787;51.084;5.816;2023-06-05T06:08:15;16.70;66.27
66019;HTU21D;52787;51.084;5.816;2023-06-05T06:10:42;16.75;65.90
66019;HTU21D;52787;51.084;5.816;2023-06-05T06:13:08;16.78;66.03
66019;HTU21D;52787;51.084;5.816;2023-06-05T06:15:33;16.89;66.04
66019;HTU21D;52787;51.084;5.816;2023-06-05T06:17:59;17.01;65.40
66019;HTU21D;52787;51.084;5.816;2023-06-05T06:20:28;17.08;65.15
66019;HTU21D;52787;51.084;5.816;2023-06-05T06:22:54;17.13;65.15
66019;HTU21D;52787;51.084;5.816;2023-06-05T06:25:21;17.18;65.13
66019;HTU21D;52787;51.084;5.816;2023-06-05T06:27:50;17.25;65.17
66019;HTU21D;52787;51.084;5.816;2023-06-05T06:30:18;17.35;64.88
66019;HTU21D;52787;51.084;5.816;2023-06-05T06:32:45;17.45;64.08
66019;HTU21D;52787;51.084;5.816;2023-06-05T06:35:11;17.54;63.63
66019;HTU21D;52787;51.084;5.816;2023-06-05T06:37:39;17.63;63.02
66019;HTU21D;52787;51.084;5.816;2023-06-05T06:40:06;17.62;63.47
66019;HTU21D;52787;51.084;5.816;2023-06-05T06:42:37;17.58;63.24
66019;HTU21D;52787;51.084;5.816;2023-06-05T06:45:03;17.56;63.44
66019;HTU21D;52787;51.084;5.816;2023-06-05T06:47:30;17.62;62.99
66019;HTU21D;52787;51.084;5.816;2023-06-05T06:49:56;17.68;63.25
66019;HTU21D;52787;51.084;5.816;2023-06-05T06:52:24;17.73;63.36
66019;HTU21D;52787;51.084;5.816;2023-06-05T06:54:50;17.74;62.98
66019;HTU21D;52787;51.084;5.816;2023-06-05T06:57:16;17.78;62.94
66019;HTU21D;52787;51.084;5.816;2023-06-05T06:59:43;17.87;62.62
66019;HTU21D;52787;51.084;5.816;2023-06-05T07:02:15;17.93;62.53
66019;HTU21D;52787;51.084;5.816;2023-06-05T07:04:44;17.94;62.05
66019;HTU21D;52787;51.084;5.816;2023-06-05T07:07:14;17.90;62.31
66019;HTU21D;52787;51.084;5.816;2023-06-05T07:09:43;17.87;62.49
66019;HTU21D;52787;51.084;5.816;2023-06-05T07:12:12;17.95;62.65
66019;HTU21D;52787;51.084;5.816;2023-06-05T07:14:39;18.02;62.44
66019;HTU21D;52787;51.084;5.816;2023-06-05T07:17:06;18.04;61.85
66019;HTU21D;52787;51.084;5.816;2023-06-05T07:19:33;18.02;61.83
66019;HTU21D;52787;51.084;5.816;2023-06-05T07:22:03;18.03;61.67
66019;HTU21D;52787;51.084;5.816;2023-06-05T07:24:34;18.12;61.44
66019;HTU21D;52787;51.084;5.816;2023-06-05T07:27:09;18.25;60.93
66019;HTU21D;52787;51.084;5.816;2023-06-05T07:29:35;18.35;60.86
66019;HTU21D;52787;51.084;5.816;2023-06-05T07:32:01;18.47;60.83
66019;HTU21D;52787;51.084;5.816;2023-06-05T07:34:31;18.56;60.57
66019;HTU21D;52787;51.084;5.816;2023-06-05T07:36:56;18.67;60.09
66019;HTU21D;52787;51.084;5.816;2023-06-05T07:39:23;18.76;59.75
66019;HTU21D;52787;51.084;5.816;2023-06-05T07:41:49;18.83;59.44
66019;HTU21D;52787;51.084;5.816;2023-06-05T07:44:17;18.92;59.20
66019;HTU21D;52787;51.084;5.816;2023-06-05T07:46:45;18.99;59.08
66019;HTU21D;52787;51.084;5.816;2023-06-05T07:49:12;19.10;58.90
66019;HTU21D;52787;51.084;5.816;2023-06-05T07:51:38;19.21;58.55
66019;HTU21D;52787;51.084;5.816;2023-06-05T07:54:10;19.33;58.20
66019;HTU21D;52787;51.084;5.816;2023-06-05T07:56:37;19.45;57.66
66019;HTU21D;52787;51.084;5.816;2023-06-05T07:59:05;19.54;57.94
66019;HTU21D;52787;51.084;5.816;2023-06-05T08:01:32;19.62;57.82
66019;HTU21D;52787;51.084;5.816;2023-06-05T08:04:08;19.69;57.48
66019;HTU21D;52787;51.084;5.816;2023-06-05T08:06:36;19.76;56.57
66019;HTU21D;52787;51.084;5.816;2023-06-05T08:09:06;19.83;55.96
66019;HTU21D;52787;51.084;5.816;2023-06-05T08:11:36;19.90;56.36
66019;HTU21D;52787;51.084;5.816;2023-06-05T08:14:04;19.98;56.26
66019;HTU21D;52787;51.084;5.816;2023-06-05T08:16:31;20.05;56.33
66019;HTU21D;52787;51.084;5.816;2023-06-05T08:18:57;20.18;56.33
66019;HTU21D;52787;51.084;5.816;2023-06-05T08:21:23;20.29;56.07
66019;HTU21D;52787;51.084;5.816;2023-06-05T08:23:49;20.39;55.59
66019;HTU21D;52787;51.084;5.816;2023-06-05T08:26:15;20.42;55.03
66019;HTU21D;52787;51.084;5.816;2023-06-05T08:28:41;20.45;55.01
66019;HTU21D;52787;51.084;5.816;2023-06-05T08:31:08;20.53;55.32
66019;HTU21D;52787;51.084;5.816;2023-06-05T08:33:35;20.66;55.05
66019;HTU21D;52787;51.084;5.816;2023-06-05T08:36:02;20.74;54.13
66019;HTU21D;52787;51.084;5.816;2023-06-05T08:38:29;20.78;54.20
66019;HTU21D;52787;51.084;5.816;2023-06-05T08:41:14;20.85;54.04
66019;HTU21D;52787;51.084;5.816;2023-06-05T08:43:41;20.92;54.18
66019;HTU21D;52787;51.084;5.816;2023-06-05T08:46:12;21.01;53.59
66019;HTU21D;52787;51.084;5.816;2023-06-05T08:48:44;21.07;53.26
66019;HTU21D;52787;51.084;5.816;2023-06-05T08:51:15;21.15;53.40
66019;HTU21D;52787;51.084;5.816;2023-06-05T08:54:02;21.20;53.62
66019;HTU21D;52787;51.084;5.816;2023-06-05T08:56:39;21.28;53.33
66019;HTU21D;52787;51.084;5.816;2023-06-05T08:59:06;21.38;52.82
66019;HTU21D;52787;51.084;5.816;2023-06-05T09:01:32;21.49;52.02
66019;HTU21D;52787;51.084;5.816;2023-06-05T09:03:58;21.58;51.88
66019;HTU21D;52787;51.084;5.816;2023-06-05T09:06:23;21.70;52.26
66019;HTU21D;52787;51.084;5.816;2023-06-05T09:08:49;21.79;51.39
66019;HTU21D;52787;51.084;5.816;2023-06-05T09:11:27;21.84;51.15
66019;HTU21D;52787;51.084;5.816;2023-06-05T09:13:56;21.92;50.63
66019;HTU21D;52787;51.084;5.816;2023-06-05T09:16:43;22.02;50.37
66019;HTU21D;52787;51.084;5.816;2023-06-05T09:19:10;22.13;50.06
66019;HTU21D;52787;51.084;5.816;2023-06-05T09:21:37;22.21;50.02
66019;HTU21D;52787;51.084;5.816;2023-06-05T09:29:41;22.50;49.15
66019;HTU21D;52787;51.084;5.816;2023-06-05T09:34:40;22.64;48.82
66019;HTU21D;52787;51.084;5.816;2023-06-05T09:37:09;22.68;48.31
66019;HTU21D;52787;51.084;5.816;2023-06-05T09:39:40;22.65;48.54
66019;HTU21D;52787;51.084;5.816;2023-06-05T09:42:08;22.68;48.90
66019;HTU21D;52787;51.084;5.816;2023-06-05T09:44:35;22.72;48.77
66019;HTU21D;52787;51.084;5.816;2023-06-05T09:47:05;22.77;48.57
66019;HTU21D;52787;51.084;5.816;2023-06-05T09:52:07;22.83;47.73
66019;HTU21D;52787;51.084;5.816;2023-06-05T09:54:36;22.87;47.73
66019;HTU21D;52787;51.084;5.816;2023-06-05T09:57:05;22.91;47.52
66019;HTU21D;52787;51.084;5.816;2023-06-05T09:59:34;23.00;48.41
66019;HTU21D;52787;51.084;5.816;2023-06-05T10:02:03;23.05;46.99
66019;HTU21D;52787;51.084;5.816;2023-06-05T10:04:44;23.06;47.61
66019;HTU21D;52787;51.084;5.816;2023-06-05T10:07:14;23.13;47.23
66019;HTU21D;52787;51.084;5.816;2023-06-05T10:09:41;23.14;47.34
66019;HTU21D;52787;51.084;5.816;2023-06-05T10:12:09;23.24;47.88
66019;HTU21D;52787;51.084;5.816;2023-06-05T10:14:36;23.32;47.20
66019;HTU21D;52787;51.084;5.816;2023-06-05T10:17:03;23.43;46.89
66019;HTU21D;52787;51.084;5.816;2023-06-05T10:19:29;23.50;46.69
66019;HTU21D;52787;51.084;5.816;2023-06-05T10:21:55;23.59;46.60
66019;HTU21D;52787;51.084;5.816;2023-06-05T10:24:34;23.69;45.56
66019;HTU21D;52787;51.084;5.816;2023-06-05T10:38:33;24.06;44.43
66019;HTU21D;52787;51.084;5.816;2023-06-05T10:41:01;24.16;44.43
66019;HTU21D;52787;51.084;5.816;2023-06-05T10:43:30;24.27;44.19
66019;HTU21D;52787;51.084;5.816;2023-06-05T10:46:00;24.35;43.45
66019;HTU21D;52787;51.084;5.816;2023-06-05T10:51:46;24.45;42.19
66019;HTU21D;52787;51.084;5.816;2023-06-05T10:54:14;24.50;43.40
66019;HTU21D;52787;51.084;5.816;2023-06-05T10:56:55;24.64;42.92
66019;HTU21D;52787;51.084;5.816;2023-06-05T10:59:27;24.74;42.87
66019;HTU21D;52787;51.084;5.816;2023-06-05T11:10:09;25.22;41.58
66019;HTU21D;52787;51.084;5.816;2023-06-05T11:18:30;25.54;40.13
66019;HTU21D;52787;51.084;5.816;2023-06-05T11:20:58;25.56;40.05
66019;HTU21D;52787;51.084;5.816;2023-06-05T11:23:26;25.62;39.87
66019;HTU21D;52787;51.084;5.816;2023-06-05T11:25:58;25.75;39.05
66019;HTU21D;52787;51.084;5.816;2023-06-05T11:29:14;25.95;39.29
66019;HTU21D;52787;51.084;5.816;2023-06-05T11:31:42;26.11;38.53
66019;HTU21D;52787;51.084;5.816;2023-06-05T11:34:13;26.16;38.49
66019;HTU21D;52787;51.084;5.816;2023-06-05T11:36:40;26.22;38.51
66019;HTU21D;52787;51.084;5.816;2023-06-05T11:39:05;26.30;37.50
66019;HTU21D;52787;51.084;5.816;2023-06-05T11:41:31;26.35;37.21
66019;HTU21D;52787;51.084;5.816;2023-06-05T11:43:57;26.39;37.23
66019;HTU21D;52787;51.084;5.816;2023-06-05T11:46:40;26.51;37.76
66019;HTU21D;52787;51.084;5.816;2023-06-05T11:49:23;26.64;37.27
66019;HTU21D;52787;51.084;5.816;2023-06-05T11:51:51;26.77;37.01
66019;HTU21D;52787;51.084;5.816;2023-06-05T11:54:43;26.89;36.85
66019;HTU21D;52787;51.084;5.816;2023-06-05T11:57:18;26.96;35.88
66019;HTU21D;52787;51.084;5.816;2023-06-05T11:59:52;27.04;34.10
66019;HTU21D;52787;51.084;5.816;2023-06-05T12:02:21;27.15;33.65
66019;HTU21D;52787;51.084;5.816;2023-06-05T12:04:50;27.22;32.83
66019;HTU21D;52787;51.084;5.816;2023-06-05T12:07:27;27.22;32.96
66019;HTU21D;52787;51.084;5.816;2023-06-05T12:09:53;27.11;33.31
66019;HTU21D;52787;51.084;5.816;2023-06-05T12:12:20;27.15;32.76
66019;HTU21D;52787;51.084;5.816;2023-06-05T12:14:46;27.23;32.10
66019;HTU21D;52787;51.084;5.816;2023-06-05T12:17:12;27.28;31.56
66019;HTU21D;52787;51.084;5.816;2023-06-05T12:19:39;27.34;30.95
66019;HTU21D;52787;51.084;5.816;2023-06-05T12:22:06;27.40;31.40
66019;HTU21D;52787;51.084;5.816;2023-06-05T12:24:34;27.49;30.19
66019;HTU21D;52787;51.084;5.816;2023-06-05T12:27:02;27.52;29.64
66019;HTU21D;52787;51.084;5.816;2023-06-05T12:29:32;27.51;29.01
66019;HTU21D;52787;51.084;5.816;2023-06-05T12:32:00;27.54;31.09
66019;HTU21D;52787;51.084;5.816;2023-06-05T12:34:44;27.58;31.71
66019;HTU21D;52787;51.084;5.816;2023-06-05T12:37:24;27.66;31.05
66019;HTU21D;52787;51.084;5.816;2023-06-05T12:39:59;27.71;29.62
66019;HTU21D;52787;51.084;5.816;2023-06-05T12:42:25;27.76;29.90
66019;HTU21D;52787;51.084;5.816;2023-06-05T12:44:51;27.81;29.52
66019;HTU21D;52787;51.084;5.816;2023-06-05T12:47:17;27.85;28.73
66019;HTU21D;52787;51.084;5.816;2023-06-05T12:49:43;27.90;28.58
66019;HTU21D;52787;51.084;5.816;2023-06-05T12:52:08;27.91;27.83
66019;HTU21D;52787;51.084;5.816;2023-06-05T12:54:38;27.98;28.96
66019;HTU21D;52787;51.084;5.816;2023-06-05T12:57:07;28.08;29.45
66019;HTU21D;52787;51.084;5.816;2023-06-05T12:59:33;28.12;29.00
66019;HTU21D;52787;51.084;5.816;2023-06-05T13:01:59;28.14;27.63
66019;HTU21D;52787;51.084;5.816;2023-06-05T13:04:25;28.13;26.75
66019;HTU21D;52787;51.084;5.816;2023-06-05T13:06:51;28.12;28.26
66019;HTU21D;52787;51.084;5.816;2023-06-05T13:09:17;28.16;27.79
66019;HTU21D;52787;51.084;5.816;2023-06-05T13:11:43;28.18;28.16
66019;HTU21D;52787;51.084;5.816;2023-06-05T13:14:09;28.26;27.79
66019;HTU21D;52787;51.084;5.816;2023-06-05T13:16:35;28.30;27.55
66019;HTU21D;52787;51.084;5.816;2023-06-05T13:19:00;28.37;27.46
66019;HTU21D;52787;51.084;5.816;2023-06-05T13:21:26;28.41;27.02
66019;HTU21D;52787;51.084;5.816;2023-06-05T13:23:52;28.40;27.55
66019;HTU21D;52787;51.084;5.816;2023-06-05T13:26:18;28.46;27.94
66019;HTU21D;52787;51.084;5.816;2023-06-05T13:28:43;28.49;27.14
66019;HTU21D;52787;51.084;5.816;2023-06-05T13:31:12;28.54;27.00
66019;HTU21D;52787;51.084;5.816;2023-06-05T13:33:39;28.56;27.04
66019;HTU21D;52787;51.084;5.816;2023-06-05T13:36:06;28.57;27.16
66019;HTU21D;52787;51.084;5.816;2023-06-05T13:38:34;28.55;26.46
66019;HTU21D;52787;51.084;5.816;2023-06-05T13:41:03;28.55;26.06
66019;HTU21D;52787;51.084;5.816;2023-06-05T13:43:31;28.57;26.52
66019;HTU21D;52787;51.084;5.816;2023-06-05T13:45:57;28.59;26.42
66019;HTU21D;52787;51.084;5.816;2023-06-05T13:48:23;28.61;27.04
66019;HTU21D;52787;51.084;5.816;2023-06-05T13:50:49;28.64;27.45
66019;HTU21D;52787;51.084;5.816;2023-06-05T13:53:15;28.71;27.13
66019;HTU21D;52787;51.084;5.816;2023-06-05T13:55:41;28.82;27.41
66019;HTU21D;52787;51.084;5.816;2023-06-05T13:58:07;28.85;26.52
66019;HTU21D;52787;51.084;5.816;2023-06-05T14:00:34;28.86;26.81
66019;HTU21D;52787;51.084;5.816;2023-06-05T14:03:01;28.94;27.16
66019;HTU21D;52787;51.084;5.816;2023-06-05T14:05:26;28.99;26.30
66019;HTU21D;52787;51.084;5.816;2023-06-05T14:07:53;29.05;25.88
66019;HTU21D;52787;51.084;5.816;2023-06-05T14:10:21;29.11;25.69
66019;HTU21D;52787;51.084;5.816;2023-06-05T14:12:49;29.13;25.90
66019;HTU21D;52787;51.084;5.816;2023-06-05T14:15:16;29.13;25.52
66019;HTU21D;52787;51.084;5.816;2023-06-05T14:17:47;29.06;25.54
66019;HTU21D;52787;51.084;5.816;2023-06-05T14:20:14;29.15;25.88
66019;HTU21D;52787;51.084;5.816;2023-06-05T14:22:40;29.24;25.02
66019;HTU21D;52787;51.084;5.816;2023-06-05T14:25:07;29.20;24.80
66019;HTU21D;52787;51.084;5.816;2023-06-05T14:27:35;29.24;25.49
66019;HTU21D;52787;51.084;5.816;2023-06-05T14:30:02;29.28;25.48
66019;HTU21D;52787;51.084;5.816;2023-06-05T14:32:28;29.31;25.85
66019;HTU21D;52787;51.084;5.816;2023-06-05T14:34:54;29.43;25.97
66019;HTU21D;52787;51.084;5.816;2023-06-05T14:37:19;29.49;26.02
66019;HTU21D;52787;51.084;5.816;2023-06-05T14:39:45;29.59;25.40
66019;HTU21D;52787;51.084;5.816;2023-06-05T14:42:11;29.66;25.14
66019;HTU21D;52787;51.084;5.816;2023-06-05T14:44:37;29.73;25.07
66019;HTU21D;52787;51.084;5.816;2023-06-05T14:47:02;29.79;25.19
66019;HTU21D;52787;51.084;5.816;2023-06-05T14:49:28;29.82;24.72
66019;HTU21D;52787;51.084;5.816;2023-06-05T14:51:54;29.81;24.36
66019;HTU21D;52787;51.084;5.816;2023-06-05T14:54:20;29.86;24.82
66019;HTU21D;52787;51.084;5.816;2023-06-05T14:56:46;29.87;24.96
66019;HTU21D;52787;51.084;5.816;2023-06-05T14:59:13;29.87;25.14
66019;HTU21D;52787;51.084;5.816;2023-06-05T15:01:42;29.87;25.11
66019;HTU21D;52787;51.084;5.816;2023-06-05T15:04:08;29.89;24.59
66019;HTU21D;52787;51.084;5.816;2023-06-05T15:06:34;29.77;24.46
66019;HTU21D;52787;51.084;5.816;2023-06-05T15:09:03;29.68;24.56
66019;HTU21D;52787;51.084;5.816;2023-06-05T15:11:29;29.61;24.53
66019;HTU21D;52787;51.084;5.816;2023-06-05T15:13:56;29.62;25.07
66019;HTU21D;52787;51.084;5.816;2023-06-05T15:16:22;29.61;25.24
66019;HTU21D;52787;51.084;5.816;2023-06-05T15:18:56;29.58;26.06
66019;HTU21D;52787;51.084;5.816;2023-06-05T15:21:22;29.54;25.91
66019;HTU21D;52787;51.084;5.816;2023-06-05T15:23:48;29.52;26.29
66019;HTU21D;52787;51.084;5.816;2023-06-05T15:26:14;29.59;26.61
66019;HTU21D;52787;51.084;5.816;2023-06-05T15:28:39;29.64;26.46
66019;HTU21D;52787;51.084;5.816;2023-06-05T15:31:06;29.66;26.55
66019;HTU21D;52787;51.084;5.816;2023-06-05T15:33:32;29.72;26.49
66019;HTU21D;52787;51.084;5.816;2023-06-05T15:35:58;29.74;26.19
66019;HTU21D;52787;51.084;5.816;2023-06-05T15:38:24;29.77;26.51
66019;HTU21D;52787;51.084;5.816;2023-06-05T15:40:50;29.78;26.29
66019;HTU21D;52787;51.084;5.816;2023-06-05T15:43:16;29.88;26.61
66019;HTU21D;52787;51.084;5.816;2023-06-05T15:45:42;29.91;26.02
66019;HTU21D;52787;51.084;5.816;2023-06-05T15:48:10;29.96;26.09
66019;HTU21D;52787;51.084;5.816;2023-06-05T15:50:36;29.96;25.23
66019;HTU21D;52787;51.084;5.816;2023-06-05T15:53:03;30.01;25.54
66019;HTU21D;52787;51.084;5.816;2023-06-05T15:55:28;30.06;26.10
66019;HTU21D;52787;51.084;5.816;2023-06-05T15:57:54;30.07;26.63
66019;HTU21D;52787;51.084;5.816;2023-06-05T16:00:22;30.16;26.68
66019;HTU21D;52787;51.084;5.816;2023-06-05T16:02:47;30.12;26.83